Painted Rocks, Iowa
Current Conditions -  °F | °C
As of 12:15 AM on Tuesday 21 Oct 2014 (Local Time) from KPEA Reporting Station
Clear Clear  
Wind Chill: 48°   Ceiling: Unl
Heat Index: 48°   Visibility: 10mi
Dew Point: 42°   Wind: 3mph
Humidity: 80%   Direction: 300°WNW
Pressure: 30.05"   Gusts: NA
Location:  41.4592°N, 93.0401°W
Report Text: KPEA 210515Z AUTO 30003KT 10SM CLR 09/06 A3005 RMK AO2 T00890057
Loading
Personal Weather Stations






























Interactive Weather Map
Tropical Storm Tracking
New forecast layout! Learn more

10-Day Weather Forecast

Advertisements
Track Severe Weather on mobile